Time;durP1;ratioP1;P1;durP2;ratioP2;P2;SDS_P1;SDS_P2;PMS_P1;PMS_P2;Temp;Humidity;BMP_temperature;BMP_pressure;BME280_temperature;BME280_humidity;BME280_pressure;Samples;Min_cycle;Max_cycle;Signal;HPM_P1;HPM_P2
2021/12/28 00:00:21;;;;;;;3.67;0.70;;;9.40;1.00;;;;;;5054386;28;20973;-82
2021/12/28 00:02:51;;;;;;;1.57;0.60;;;9.50;99.90;;;;;;5056584;28;21098;-81
2021/12/28 00:05:21;;;;;;;2.50;1.00;;;9.50;1.00;;;;;;5055512;28;20499;-81
2021/12/28 00:07:50;;;;;;;4.13;0.97;;;9.20;99.90;;;;;;5070068;28;20665;-82
2021/12/28 00:10:20;;;;;;;1.33;0.60;;;9.30;1.00;;;;;;5058179;28;20440;-82
2021/12/28 00:12:48;;;;;;;0.73;0.70;;;9.50;1.00;;;;;;5056296;28;20479;-83
2021/12/28 00:15:32;;;;;;;1.13;0.60;;;9.60;1.00;;;;;;5048266;28;20483;-82
2021/12/28 00:18:03;;;;;;;0.90;0.73;;;9.80;99.90;;;;;;5052766;28;20472;-83
2021/12/28 00:20:36;;;;;;;1.37;0.60;;;10.00;1.00;;;;;;5049878;28;21080;-84
2021/12/28 00:23:05;;;;;;;1.27;0.80;;;10.10;99.90;;;;;;5051008;28;20468;-82
2021/12/28 00:25:34;;;;;;;1.57;0.70;;;10.10;99.90;;;;;;5053551;28;20482;-81
2021/12/28 00:28:02;;;;;;;0.83;0.80;;;9.90;99.90;;;;;;5057206;28;20467;-81
2021/12/28 00:30:31;;;;;;;1.33;0.70;;;9.90;99.90;;;;;;5059434;28;20456;-82
2021/12/28 00:32:59;;;;;;;2.63;0.80;;;9.80;99.90;;;;;;5067797;28;20483;-82
2021/12/28 00:35:31;;;;;;;3.07;1.47;;;9.70;1.00;;;;;;5051134;28;20464;-82
2021/12/28 00:38:01;;;;;;;2.30;0.87;;;9.60;99.90;;;;;;5051651;28;21013;-82
2021/12/28 00:40:29;;;;;;;3.80;1.03;;;9.70;1.00;;;;;;5049298;28;20458;-83
2021/12/28 00:42:58;;;;;;;0.90;0.63;;;9.90;99.90;;;;;;5045904;28;20486;-83
2021/12/28 00:45:27;;;;;;;2.77;0.90;;;9.90;99.90;;;;;;5060499;28;20539;-81
2021/12/28 00:47:55;;;;;;;7.33;1.00;;;10.00;99.90;;;;;;5046278;28;21052;-83
2021/12/28 00:50:24;;;;;;;0.70;0.70;;;10.10;1.00;;;;;;5059749;28;20455;-82
2021/12/28 00:52:52;;;;;;;4.53;1.00;;;10.10;31.00;;;;;;5052163;28;20476;-83
2021/12/28 00:55:22;;;;;;;1.37;0.70;;;10.10;1.00;;;;;;5043787;28;20453;-81
2021/12/28 00:57:52;;;;;;;2.60;0.90;;;10.00;11.30;;;;;;5047276;28;20467;-83
2021/12/28 01:00:22;;;;;;;2.27;0.83;;;10.00;14.70;;;;;;5047429;28;20454;-81
2021/12/28 01:02:51;;;;;;;2.10;0.90;;;10.10;1.00;;;;;;5055903;28;20480;-82
2021/12/28 01:05:20;;;;;;;5.00;0.83;;;10.10;1.00;;;;;;5046566;28;20560;-83
2021/12/28 01:07:49;;;;;;;3.73;0.90;;;10.10;1.00;;;;;;5049672;28;20475;-82
2021/12/28 01:10:21;;;;;;;3.43;0.90;;;10.10;1.00;;;;;;5052003;28;20457;-81
2021/12/28 01:12:52;;;;;;;5.23;1.00;;;9.90;1.00;;;;;;5045046;28;20894;-82
2021/12/28 01:15:21;;;;;;;2.97;0.80;;;9.80;91.30;;;;;;5049272;28;21017;-82
2021/12/28 01:17:50;;;;;;;3.50;0.83;;;9.90;2.10;;;;;;5045336;28;20462;-82
2021/12/28 01:20:18;;;;;;;3.80;0.80;;;9.80;62.30;;;;;;5061274;28;20462;-83
2021/12/28 01:22:47;;;;;;;0.80;0.60;;;9.90;1.00;;;;;;5064348;28;20489;-82
2021/12/28 01:25:18;;;;;;;2.93;0.87;;;9.90;1.00;;;;;;5046221;28;20479;-82
2021/12/28 01:27:46;;;;;;;2.23;0.87;;;9.80;1.00;;;;;;5057978;28;20465;-82
2021/12/28 01:30:20;;;;;;;0.97;0.70;;;9.80;17.70;;;;;;5055823;28;20455;-83
2021/12/28 01:32:49;;;;;;;1.70;0.80;;;10.00;1.00;;;;;;5048522;28;20524;-82
2021/12/28 01:35:18;;;;;;;7.67;1.00;;;10.10;1.00;;;;;;5052231;28;20446;-81
2021/12/28 01:37:47;;;;;;;5.40;0.70;;;10.20;99.90;;;;;;5053703;28;20458;-82
2021/12/28 01:40:18;;;;;;;6.20;0.97;;;10.20;99.90;;;;;;5052546;28;20448;-82
2021/12/28 01:43:06;;;;;;;0.70;0.70;;;10.10;1.00;;;;;;5061051;28;20492;-82
2021/12/28 01:45:56;;;;;;;4.70;1.00;;;10.10;1.00;;;;;;5054949;28;21299;-82
2021/12/28 01:48:26;;;;;;;6.77;1.27;;;10.20;99.90;;;;;;5065326;28;20480;-82
2021/12/28 01:50:56;;;;;;;2.93;1.00;;;10.10;99.90;;;;;;5051951;28;20461;-82
2021/12/28 01:53:25;;;;;;;4.73;0.70;;;10.20;99.90;;;;;;5054472;28;20464;-83
2021/12/28 01:55:57;;;;;;;2.70;0.90;;;10.20;99.90;;;;;;5044519;28;20465;-82
2021/12/28 01:58:26;;;;;;;2.80;1.03;;;10.20;99.90;;;;;;5046951;28;21147;-82
2021/12/28 02:00:56;;;;;;;2.60;1.03;;;10.20;99.90;;;;;;5045484;28;20473;-82
2021/12/28 02:03:27;;;;;;;2.53;0.80;;;10.30;99.90;;;;;;5059912;28;20446;-81
2021/12/28 02:05:55;;;;;;;4.30;1.73;;;10.30;99.90;;;;;;5049552;28;20467;-81
2021/12/28 02:08:24;;;;;;;2.33;0.90;;;10.30;99.90;;;;;;5055910;28;20464;-82
2021/12/28 02:10:54;;;;;;;2.37;0.73;;;10.20;99.90;;;;;;5045767;28;20458;-83
2021/12/28 02:13:23;;;;;;;1.43;0.70;;;10.20;99.90;;;;;;5062570;28;20566;-83
2021/12/28 02:15:52;;;;;;;2.67;0.93;;;10.30;99.90;;;;;;5049146;28;20451;-83
2021/12/28 02:18:23;;;;;;;3.57;0.80;;;10.30;99.90;;;;;;5068940;28;20456;-83
2021/12/28 02:20:54;;;;;;;1.83;0.80;;;10.20;99.90;;;;;;5064526;28;21059;-82
2021/12/28 02:23:23;;;;;;;1.60;0.80;;;10.10;99.90;;;;;;5061408;28;20447;-83
2021/12/28 02:25:53;;;;;;;1.53;0.77;;;10.00;99.90;;;;;;5051752;28;20522;-84
2021/12/28 02:28:22;;;;;;;1.07;0.70;;;10.10;99.90;;;;;;5067093;28;21288;-83
2021/12/28 02:30:54;;;;;;;1.17;0.77;;;10.00;99.90;;;;;;5062286;28;20984;-82
2021/12/28 02:33:24;;;;;;;1.63;0.80;;;9.90;99.90;;;;;;5064323;28;20456;-82
2021/12/28 02:35:56;;;;;;;1.90;0.80;;;9.90;99.90;;;;;;5075228;28;20620;-82
2021/12/28 02:38:24;;;;;;;2.17;0.90;;;10.00;99.90;;;;;;5062850;28;20469;-83
2021/12/28 02:40:52;;;;;;;3.10;0.90;;;10.00;99.90;;;;;;5049236;28;20467;-83
2021/12/28 02:43:20;;;;;;;2.10;0.70;;;10.00;99.90;;;;;;5056348;28;20459;-82
2021/12/28 02:45:51;;;;;;;3.37;0.90;;;10.10;99.90;;;;;;5059467;28;20460;-82
2021/12/28 02:48:20;;;;;;;1.47;0.60;;;10.00;99.90;;;;;;5057715;28;20449;-82
2021/12/28 02:50:52;;;;;;;1.50;0.70;;;10.00;99.90;;;;;;5070402;28;20457;-82
2021/12/28 02:53:22;;;;;;;1.07;0.63;;;9.90;99.90;;;;;;5062203;28;21325;-82
2021/12/28 02:55:52;;;;;;;1.90;0.87;;;9.90;99.90;;;;;;5050719;28;20471;-81
2021/12/28 02:58:32;;;;;;;2.80;0.73;;;9.70;99.90;;;;;;5059026;28;20468;-83
2021/12/28 03:01:04;;;;;;;5.43;1.00;;;9.70;99.90;;;;;;5067230;28;20491;-81
2021/12/28 03:03:34;;;;;;;3.37;0.70;;;9.90;99.90;;;;;;5047226;28;20516;-82
2021/12/28 03:06:04;;;;;;;3.00;1.10;;;10.00;99.90;;;;;;5062458;28;20452;-81
2021/12/28 03:08:36;;;;;;;3.73;0.73;;;10.00;99.90;;;;;;5047559;28;20454;-83
2021/12/28 03:11:05;;;;;;;2.97;1.50;;;10.00;99.90;;;;;;5047062;28;20486;-84
2021/12/28 03:13:40;;;;;;;1.33;0.93;;;9.80;99.90;;;;;;5048034;28;20443;-82
2021/12/28 03:16:09;;;;;;;1.40;0.80;;;9.80;99.90;;;;;;5050939;28;20470;-83
2021/12/28 03:18:38;;;;;;;1.43;0.70;;;9.90;99.90;;;;;;5055804;28;20454;-82
2021/12/28 03:21:08;;;;;;;0.77;0.77;;;9.80;99.90;;;;;;5063761;28;21023;-82
2021/12/28 03:23:39;;;;;;;2.00;0.63;;;9.90;99.90;;;;;;5060219;28;20454;-83
2021/12/28 03:26:08;;;;;;;0.80;0.70;;;9.90;99.90;;;;;;5062481;28;20964;-82
2021/12/28 03:28:39;;;;;;;0.70;0.63;;;9.90;99.90;;;;;;5062872;28;21314;-82
2021/12/28 03:31:10;;;;;;;4.40;0.80;;;9.80;99.90;;;;;;5050196;28;20486;-83
2021/12/28 03:33:40;;;;;;;1.70;0.97;;;10.00;99.90;;;;;;5059209;28;20821;-80
2021/12/28 03:36:09;;;;;;;2.10;0.83;;;10.10;99.90;;;;;;5065672;28;20838;-82
2021/12/28 03:38:40;;;;;;;2.67;0.77;;;10.10;99.90;;;;;;5044507;28;20456;-82
2021/12/28 03:41:10;;;;;;;6.30;1.00;;;10.20;53.60;;;;;;5054310;28;20480;-82
2021/12/28 03:43:41;;;;;;;0.60;0.60;;;10.20;8.70;;;;;;5067195;28;20464;-82
2021/12/28 03:46:10;;;;;;;4.23;2.30;;;10.20;3.00;;;;;;5047181;28;20877;-82
2021/12/28 03:48:40;;;;;;;6.10;0.70;;;10.30;1.00;;;;;;5048296;28;20577;-82
2021/12/28 03:51:10;;;;;;;1.70;1.00;;;10.20;1.00;;;;;;5056567;28;20471;-81
2021/12/28 03:53:40;;;;;;;2.53;0.83;;;10.20;1.00;;;;;;5045153;28;20460;-81
2021/12/28 03:56:10;;;;;;;1.80;0.97;;;9.70;2.70;;;;;;5059544;28;20477;-82
2021/12/28 03:58:41;;;;;;;2.60;0.90;;;9.80;54.80;;;;;;5045969;28;20484;-81
2021/12/28 04:01:11;;;;;;;2.00;0.57;;;9.80;99.90;;;;;;5049621;28;20505;-82
2021/12/28 04:03:40;;;;;;;2.97;0.80;;;9.80;99.90;;;;;;5055064;28;20457;-82
2021/12/28 04:06:10;;;;;;;1.27;0.60;;;9.70;99.90;;;;;;5051052;28;20451;-82
2021/12/28 04:08:42;;;;;;;1.80;0.67;;;9.50;99.90;;;;;;5047925;28;21021;-82
2021/12/28 04:11:25;;;;;;;3.03;0.80;;;9.40;99.90;;;;;;5054645;28;20491;-82
2021/12/28 04:14:00;;;;;;;1.93;0.70;;;9.40;99.90;;;;;;5052090;28;20795;-82
2021/12/28 04:16:29;;;;;;;5.50;0.70;;;9.50;99.90;;;;;;5079211;28;20460;-82
2021/12/28 04:18:58;;;;;;;2.47;0.60;;;9.60;99.90;;;;;;5054682;28;20503;-80
2021/12/28 04:21:27;;;;;;;2.77;0.73;;;9.80;99.90;;;;;;5058060;28;20479;-82
2021/12/28 04:23:57;;;;;;;0.60;0.53;;;9.70;99.90;;;;;;5057921;28;20444;-82
2021/12/28 04:26:26;;;;;;;0.90;0.60;;;9.70;99.90;;;;;;5052473;28;20478;-82
2021/12/28 04:28:54;;;;;;;1.60;0.70;;;9.70;99.90;;;;;;5045514;28;20480;-82
2021/12/28 04:31:23;;;;;;;2.33;0.80;;;9.60;99.90;;;;;;5060702;28;20478;-81
2021/12/28 04:33:51;;;;;;;3.27;0.80;;;9.70;99.90;;;;;;5054268;28;20533;-82
2021/12/28 04:36:20;;;;;;;1.57;0.50;;;9.60;99.90;;;;;;5065674;28;20460;-82
2021/12/28 04:38:48;;;;;;;0.60;0.60;;;9.50;99.90;;;;;;5068793;28;20453;-82
2021/12/28 04:41:18;;;;;;;0.80;0.80;;;9.50;99.90;;;;;;5057974;28;20488;-82
2021/12/28 04:43:48;;;;;;;3.53;0.70;;;9.50;1.00;;;;;;5063023;28;20456;-81
2021/12/28 04:46:16;;;;;;;0.83;0.60;;;9.60;1.00;;;;;;5046596;28;20472;-83
2021/12/28 04:48:45;;;;;;;2.07;0.80;;;9.70;99.90;;;;;;5043464;28;20492;-81
2021/12/28 04:51:13;;;;;;;1.30;0.60;;;9.70;99.90;;;;;;5045399;28;20825;-81
2021/12/28 04:53:41;;;;;;;0.87;0.57;;;9.60;99.90;;;;;;5050342;28;20469;-83
2021/12/28 04:56:09;;;;;;;0.60;0.60;;;9.60;99.90;;;;;;5069531;28;20476;-83
2021/12/28 04:58:39;;;;;;;2.50;0.50;;;9.50;1.00;;;;;;5058493;28;20463;-82
2021/12/28 05:01:07;;;;;;;1.33;0.60;;;9.70;99.90;;;;;;5047166;28;20905;-83
2021/12/28 05:03:36;;;;;;;1.37;0.60;;;9.80;99.90;;;;;;5083062;28;20509;-82
2021/12/28 05:06:05;;;;;;;0.80;0.80;;;10.00;99.90;;;;;;5068001;28;20807;-83
2021/12/28 05:08:33;;;;;;;2.30;0.60;;;9.80;99.90;;;;;;5061270;28;20479;-81
2021/12/28 05:11:01;;;;;;;1.33;0.83;;;9.90;99.90;;;;;;5063118;28;20476;-82
2021/12/28 05:13:29;;;;;;;1.73;0.60;;;9.80;99.90;;;;;;5072894;28;20514;-82
2021/12/28 05:15:59;;;;;;;4.87;0.70;;;10.00;99.90;;;;;;5054572;28;20459;-83
2021/12/28 05:18:27;;;;;;;1.60;0.60;;;10.10;99.90;;;;;;5048466;28;20463;-82
2021/12/28 05:20:55;;;;;;;0.50;0.50;;;9.90;99.90;;;;;;5052463;28;20461;-84
2021/12/28 05:23:23;;;;;;;0.70;0.53;;;10.00;99.90;;;;;;5061648;28;20472;-82
2021/12/28 05:25:52;;;;;;;0.97;0.60;;;10.10;99.90;;;;;;5061638;28;20464;-82
2021/12/28 05:28:20;;;;;;;0.93;0.60;;;10.00;99.90;;;;;;5050334;28;20519;-83
2021/12/28 05:30:48;;;;;;;0.70;0.60;;;10.20;99.90;;;;;;5057647;28;20814;-82
2021/12/28 05:33:18;;;;;;;1.20;0.50;;;10.30;99.90;;;;;;5050026;28;20473;-82
2021/12/28 05:35:46;;;;;;;0.70;0.60;;;10.20;99.90;;;;;;5047444;28;20455;-83
2021/12/28 05:38:14;;;;;;;0.60;0.60;;;10.00;99.90;;;;;;5054970;28;20458;-81
2021/12/28 05:40:42;;;;;;;0.80;0.60;;;10.10;99.90;;;;;;5064422;28;20471;-81
2021/12/28 05:43:11;;;;;;;0.77;0.77;;;10.30;99.90;;;;;;5058247;28;20466;-82
2021/12/28 05:45:39;;;;;;;0.80;0.53;;;10.30;99.90;;;;;;5062346;28;20472;-82
2021/12/28 05:48:07;;;;;;;0.50;0.50;;;10.30;99.90;;;;;;5068515;28;20586;-81
2021/12/28 05:50:37;;;;;;;0.70;0.50;;;10.40;99.90;;;;;;5052397;28;20483;-81
2021/12/28 05:53:05;;;;;;;0.70;0.70;;;10.50;99.90;;;;;;5052127;28;20456;-82
2021/12/28 05:55:34;;;;;;;2.43;1.20;;;10.50;90.60;;;;;;5052405;28;21038;-82
2021/12/28 05:58:02;;;;;;;1.77;0.67;;;10.50;99.90;;;;;;5053008;28;20466;-82
2021/12/28 06:00:31;;;;;;;1.53;0.70;;;10.50;99.90;;;;;;5053082;28;20849;-83
2021/12/28 06:03:00;;;;;;;6.80;0.90;;;10.50;99.90;;;;;;5054029;28;20482;-82
2021/12/28 06:05:28;;;;;;;2.67;0.53;;;10.30;99.90;;;;;;5046647;28;20445;-82
2021/12/28 06:07:58;;;;;;;0.67;0.50;;;10.20;99.90;;;;;;5046160;28;20482;-83
2021/12/28 06:10:26;;;;;;;0.60;0.60;;;9.70;1.00;;;;;;5056070;28;20958;-81
2021/12/28 06:12:55;;;;;;;0.90;0.60;;;9.80;1.00;;;;;;5048534;28;20480;-82
2021/12/28 06:15:23;;;;;;;1.03;0.50;;;9.80;1.00;;;;;;5051010;28;20471;-81
2021/12/28 06:17:52;;;;;;;0.73;0.60;;;9.80;99.90;;;;;;5059286;28;20709;-80
2021/12/28 06:20:20;;;;;;;1.40;0.50;;;9.80;1.00;;;;;;5069291;28;20450;-82
2021/12/28 06:22:48;;;;;;;1.80;0.60;;;9.80;1.00;;;;;;5073439;28;20485;-82
2021/12/28 06:25:18;;;;;;;0.70;0.67;;;9.70;1.00;;;;;;5066189;28;20480;-81
2021/12/28 06:27:47;;;;;;;1.00;0.90;;;9.70;99.90;;;;;;5063578;28;20506;-81
2021/12/28 06:30:16;;;;;;;1.80;0.50;;;9.60;99.90;;;;;;5068294;28;21222;-84
2021/12/28 06:32:44;;;;;;;6.37;0.70;;;9.50;1.00;;;;;;5082104;28;20600;-82
2021/12/28 06:35:13;;;;;;;0.60;0.60;;;9.30;1.00;;;;;;5073952;28;20463;-80
2021/12/28 06:37:41;;;;;;;1.77;0.70;;;9.30;99.90;;;;;;5055120;28;20458;-83
2021/12/28 06:40:11;;;;;;;1.00;0.57;;;9.20;1.00;;;;;;5073027;28;20476;-81
2021/12/28 06:42:41;;;;;;;0.80;0.67;;;9.30;99.90;;;;;;5072649;28;20478;-81
2021/12/28 06:45:09;;;;;;;0.70;0.70;;;9.30;99.90;;;;;;5061023;28;20856;-81
2021/12/28 06:47:38;;;;;;;0.50;0.50;;;9.30;99.90;;;;;;5068637;28;20466;-81
2021/12/28 06:50:08;;;;;;;1.83;0.70;;;9.20;1.00;;;;;;5057585;28;20477;-80
2021/12/28 06:52:36;;;;;;;3.30;0.63;;;9.10;99.90;;;;;;5064048;28;21069;-81
2021/12/28 06:55:06;;;;;;;0.50;0.50;;;9.20;1.00;;;;;;5072243;28;20449;-82
2021/12/28 06:57:34;;;;;;;1.03;0.60;;;9.20;99.90;;;;;;5065610;28;20468;-81
2021/12/28 07:00:05;;;;;;;0.53;0.53;;;9.20;99.90;;;;;;5055429;28;20490;-82
2021/12/28 07:02:34;;;;;;;0.50;0.50;;;9.10;1.00;;;;;;5062262;28;20484;-83
2021/12/28 07:05:03;;;;;;;0.50;0.50;;;9.20;1.00;;;;;;5066928;28;20452;-82
2021/12/28 07:07:31;;;;;;;0.50;0.50;;;9.20;24.20;;;;;;5056597;28;20458;-81
2021/12/28 07:09:59;;;;;;;0.63;0.60;;;9.20;1.00;;;;;;5057289;28;20479;-80
2021/12/28 07:12:27;;;;;;;0.53;0.50;;;9.10;99.90;;;;;;5056067;28;20484;-82
2021/12/28 07:14:56;;;;;;;0.50;0.50;;;9.30;99.90;;;;;;5067644;28;20456;-81
2021/12/28 07:17:26;;;;;;;0.60;0.60;;;9.30;99.90;;;;;;5064768;28;20463;-80
2021/12/28 07:19:55;;;;;;;1.37;0.73;;;9.40;99.90;;;;;;5052377;28;21509;-80
2021/12/28 07:22:23;;;;;;;0.50;0.50;;;9.50;99.90;;;;;;5063231;28;20467;-81
2021/12/28 07:24:51;;;;;;;0.50;0.50;;;9.20;1.00;;;;;;5052206;28;20456;-79
2021/12/28 07:27:19;;;;;;;1.53;0.60;;;9.10;1.00;;;;;;5053378;28;20489;-80
2021/12/28 07:29:47;;;;;;;0.90;0.50;;;9.20;99.90;;;;;;5056549;28;20476;-80
2021/12/28 07:32:16;;;;;;;0.53;0.50;;;9.40;86.10;;;;;;5061708;28;20479;-82
2021/12/28 07:34:46;;;;;;;0.50;0.50;;;9.50;1.00;;;;;;5059059;28;20449;-78
2021/12/28 07:37:14;;;;;;;0.63;0.50;;;9.40;99.90;;;;;;5059734;28;20972;-79
2021/12/28 07:39:42;;;;;;;0.40;0.40;;;9.40;99.90;;;;;;5049879;28;20823;-80
2021/12/28 07:42:11;;;;;;;0.53;0.53;;;9.40;99.90;;;;;;5060303;28;20476;-80
2021/12/28 07:44:39;;;;;;;0.70;0.50;;;9.60;2.00;;;;;;5053139;28;20479;-79
2021/12/28 07:47:08;;;;;;;0.50;0.50;;;9.60;1.00;;;;;;5050713;28;20453;-79
2021/12/28 07:49:36;;;;;;;2.30;0.60;;;9.40;99.90;;;;;;5063018;28;20504;-81
2021/12/28 07:52:07;;;;;;;0.70;0.40;;;9.50;1.00;;;;;;5061492;28;20807;-80
2021/12/28 07:54:35;;;;;;;0.50;0.50;;;9.30;99.90;;;;;;5052844;28;20471;-80
2021/12/28 07:57:04;;;;;;;0.40;0.40;;;9.40;41.00;;;;;;5063691;28;20452;-80
2021/12/28 07:59:33;;;;;;;0.70;0.50;;;9.40;99.90;;;;;;5060400;28;20448;-80
2021/12/28 08:02:01;;;;;;;1.23;0.50;;;9.20;1.00;;;;;;5077780;28;20475;-80
2021/12/28 08:04:30;;;;;;;0.50;0.50;;;9.20;1.00;;;;;;5047395;28;20450;-80
2021/12/28 08:06:58;;;;;;;1.37;0.53;;;9.30;99.90;;;;;;5061603;28;20769;-78
2021/12/28 08:09:28;;;;;;;0.50;0.50;;;9.40;99.90;;;;;;5051293;28;20472;-79
2021/12/28 08:11:56;;;;;;;0.43;0.40;;;9.30;99.90;;;;;;5046474;28;20476;-80
2021/12/28 08:14:24;;;;;;;0.93;0.40;;;9.30;1.00;;;;;;5043653;28;20463;-80
2021/12/28 08:16:53;;;;;;;0.40;0.40;;;9.20;12.80;;;;;;5043087;28;20454;-80
2021/12/28 08:19:21;;;;;;;0.30;0.30;;;9.20;1.00;;;;;;5042341;28;20452;-81
2021/12/28 08:21:49;;;;;;;0.40;0.40;;;9.30;99.90;;;;;;5046420;28;20910;-81
2021/12/28 08:24:17;;;;;;;0.40;0.40;;;9.50;82.20;;;;;;5056599;28;20477;-81
2021/12/28 08:26:47;;;;;;;0.30;0.30;;;9.30;99.00;;;;;;5050447;28;20460;-80
2021/12/28 08:29:15;;;;;;;0.40;0.40;;;9.30;99.90;;;;;;5039325;28;20508;-80
2021/12/28 08:31:44;;;;;;;0.47;0.47;;;9.30;1.00;;;;;;5064908;28;20478;-79
2021/12/28 08:34:13;;;;;;;0.40;0.40;;;9.40;99.90;;;;;;5051320;28;20471;-79
2021/12/28 08:36:41;;;;;;;0.70;0.50;;;9.50;1.00;;;;;;5051002;28;20453;-77
2021/12/28 08:39:09;;;;;;;0.50;0.43;;;9.60;99.90;;;;;;5048629;28;20466;-80
2021/12/28 08:41:37;;;;;;;0.47;0.47;;;9.70;1.00;;;;;;5059651;28;20486;-79
2021/12/28 08:44:07;;;;;;;0.40;0.40;;;9.80;99.90;;;;;;5068759;28;20474;-79
2021/12/28 08:46:35;;;;;;;2.13;0.50;;;9.90;99.90;;;;;;5057674;28;20535;-80
2021/12/28 08:49:04;;;;;;;0.40;0.40;;;9.50;99.90;;;;;;5045244;28;20482;-77
2021/12/28 08:51:32;;;;;;;0.40;0.40;;;9.50;1.00;;;;;;5051232;28;20492;-81
2021/12/28 08:54:00;;;;;;;0.40;0.40;;;9.40;26.70;;;;;;5042241;28;20530;-80
2021/12/28 08:56:28;;;;;;;0.50;0.50;;;9.50;1.00;;;;;;5049913;28;20461;-80
2021/12/28 08:58:57;;;;;;;0.80;0.40;;;9.70;1.00;;;;;;5063791;28;20466;-80
2021/12/28 09:01:26;;;;;;;1.50;0.40;;;9.70;99.90;;;;;;5044878;28;20483;-79
2021/12/28 09:03:55;;;;;;;0.60;0.60;;;9.70;99.90;;;;;;5050446;28;20461;-79
2021/12/28 09:06:23;;;;;;;0.50;0.40;;;9.90;1.00;;;;;;5050958;28;20459;-80
2021/12/28 09:08:51;;;;;;;0.87;0.50;;;9.80;1.00;;;;;;5055750;28;20505;-79
2021/12/28 09:11:20;;;;;;;0.60;0.50;;;9.90;1.00;;;;;;5051128;28;20496;-81
2021/12/28 09:13:48;;;;;;;1.37;0.90;;;9.90;1.00;;;;;;5051620;28;20445;-79
2021/12/28 09:16:16;;;;;;;0.40;0.40;;;9.90;99.90;;;;;;5046046;28;20484;-79
2021/12/28 09:18:46;;;;;;;0.50;0.50;;;9.90;99.90;;;;;;5047878;28;22678;-80
2021/12/28 09:21:15;;;;;;;0.70;0.60;;;9.80;1.00;;;;;;5053849;28;21088;-79
2021/12/28 09:23:43;;;;;;;0.40;0.40;;;10.00;99.90;;;;;;5050371;28;21035;-80
2021/12/28 09:26:31;;;;;;;0.40;0.40;;;10.00;99.90;;;;;;5052447;28;20456;-79
2021/12/28 09:28:59;;;;;;;0.40;0.40;;;9.80;1.00;;;;;;5046248;28;21190;-80
2021/12/28 09:31:28;;;;;;;0.40;0.40;;;9.90;84.90;;;;;;5048654;28;20482;-80
2021/12/28 09:33:57;;;;;;;0.50;0.50;;;10.10;99.90;;;;;;5049022;28;20474;-80
2021/12/28 09:36:42;;;;;;;0.40;0.40;;;10.20;1.00;;;;;;5050349;28;20457;-81
2021/12/28 09:39:11;;;;;;;0.40;0.40;;;10.10;99.90;;;;;;5053879;28;20879;-80
2021/12/28 09:41:39;;;;;;;0.40;0.40;;;10.00;1.00;;;;;;5048705;28;20471;-81
2021/12/28 09:44:07;;;;;;;0.40;0.40;;;10.00;99.90;;;;;;5050084;28;20511;-80
2021/12/28 09:46:36;;;;;;;0.40;0.40;;;10.10;97.90;;;;;;5049121;28;20479;-81
2021/12/28 09:49:06;;;;;;;0.40;0.40;;;10.20;74.30;;;;;;5050403;28;20452;-80
2021/12/28 09:51:34;;;;;;;0.40;0.40;;;10.40;1.00;;;;;;5051624;28;20584;-81
2021/12/28 09:54:03;;;;;;;0.30;0.30;;;10.50;32.70;;;;;;5048819;28;21135;-81
2021/12/28 09:56:33;;;;;;;0.40;0.40;;;10.50;1.00;;;;;;5055621;28;20489;-80
2021/12/28 09:59:02;;;;;;;1.60;0.40;;;10.60;99.90;;;;;;5053885;28;20455;-81
2021/12/28 10:01:30;;;;;;;0.40;0.40;;;10.20;99.90;;;;;;5052760;28;20536;-80
2021/12/28 10:03:59;;;;;;;0.40;0.40;;;10.40;1.80;;;;;;5045758;28;20969;-81
2021/12/28 10:06:31;;;;;;;0.30;0.30;;;10.40;13.50;;;;;;5051544;28;20456;-81
2021/12/28 10:09:08;;;;;;;0.50;0.50;;;10.40;1.00;;;;;;5045238;28;20514;-80
2021/12/28 10:11:38;;;;;;;0.40;0.40;;;10.50;99.90;;;;;;5052916;28;20538;-80
2021/12/28 10:14:15;;;;;;;0.50;0.50;;;10.70;1.00;;;;;;5047690;28;20462;-80
2021/12/28 10:16:49;;;;;;;0.40;0.40;;;10.70;99.90;;;;;;5052788;28;20460;-80
2021/12/28 10:19:35;;;;;;;0.60;0.50;;;11.10;99.90;;;;;;5053193;28;20537;-80
2021/12/28 10:22:31;;;;;;;0.47;0.47;;;11.00;99.90;;;;;;5048115;28;20481;-80
2021/12/28 10:25:04;;;;;;;0.40;0.40;;;10.90;76.80;;;;;;5049087;28;20524;-80
2021/12/28 10:27:32;;;;;;;0.40;0.40;;;10.80;1.00;;;;;;5047715;28;20467;-81
2021/12/28 10:30:08;;;;;;;0.47;0.47;;;10.80;37.50;;;;;;5048725;28;20468;-80
2021/12/28 10:32:38;;;;;;;0.50;0.50;;;10.80;99.90;;;;;;5047870;28;20489;-80
2021/12/28 10:35:10;;;;;;;0.40;0.40;;;10.90;1.00;;;;;;5051137;28;20484;-80
2021/12/28 10:37:44;;;;;;;0.50;0.50;;;11.10;99.90;;;;;;5051191;28;20422;-81
2021/12/28 10:40:20;;;;;;;0.50;0.50;;;11.30;99.90;;;;;;5051277;28;20716;-81
2021/12/28 10:42:54;;;;;;;0.40;0.40;;;11.40;99.90;;;;;;5054193;28;20470;-81
2021/12/28 10:45:25;;;;;;;0.50;0.50;;;11.40;99.90;;;;;;5054708;28;20514;-80
2021/12/28 10:47:55;;;;;;;1.00;0.53;;;11.40;1.00;;;;;;5054980;28;20992;-81
2021/12/28 10:50:29;;;;;;;0.30;0.30;;;11.30;99.90;;;;;;5053028;28;20453;-81
2021/12/28 10:53:07;;;;;;;0.40;0.40;;;11.30;99.90;;;;;;5058653;28;20488;-80
2021/12/28 10:55:36;;;;;;;0.40;0.40;;;11.40;99.90;;;;;;5057034;28;20888;-80
2021/12/28 10:58:05;;;;;;;0.70;0.40;;;11.40;99.90;;;;;;5054115;28;20455;-80
2021/12/28 11:00:38;;;;;;;0.47;0.47;;;11.50;99.90;;;;;;5050189;28;20447;-81
2021/12/28 11:03:30;;;;;;;0.60;0.60;;;11.70;99.90;;;;;;5056134;28;20671;-80
2021/12/28 11:06:00;;;;;;;0.50;0.50;;;11.80;99.90;;;;;;5052708;28;20456;-79
2021/12/28 11:08:30;;;;;;;0.50;0.50;;;12.00;99.90;;;;;;5049791;28;20456;-80
2021/12/28 11:11:01;;;;;;;0.60;0.50;;;12.00;1.00;;;;;;5048966;28;20485;-80
2021/12/28 11:13:31;;;;;;;0.40;0.40;;;12.20;1.00;;;;;;5051607;28;20458;-80
2021/12/28 11:16:01;;;;;;;0.60;0.50;;;12.10;99.90;;;;;;5045779;28;20567;-81
2021/12/28 11:18:33;;;;;;;0.40;0.40;;;12.20;1.00;;;;;;5050499;28;20469;-80
2021/12/28 11:21:10;;;;;;;0.93;0.40;;;12.30;1.00;;;;;;5054167;28;20493;-80
2021/12/28 11:23:40;;;;;;;0.50;0.50;;;12.20;99.90;;;;;;5052848;28;21136;-79
2021/12/28 11:26:25;;;;;;;0.40;0.40;;;11.80;99.90;;;;;;5047809;28;20458;-80
2021/12/28 11:28:59;;;;;;;0.50;0.40;;;12.10;99.90;;;;;;5053000;28;20455;-81
2021/12/28 11:31:29;;;;;;;0.63;0.50;;;12.10;99.90;;;;;;5051317;28;21025;-82
2021/12/28 11:34:02;;;;;;;0.80;0.50;;;12.00;1.00;;;;;;5045816;28;20206;-82
2021/12/28 11:36:34;;;;;;;0.50;0.50;;;11.90;1.00;;;;;;5054975;28;20458;-82
2021/12/28 11:39:08;;;;;;;0.50;0.50;;;12.00;99.90;;;;;;5057260;28;20280;-81
2021/12/28 11:41:37;;;;;;;1.23;0.53;;;12.10;87.20;;;;;;5055215;28;20457;-81
2021/12/28 11:44:06;;;;;;;2.53;0.60;;;12.00;99.90;;;;;;5057213;28;20458;-82
2021/12/28 11:46:35;;;;;;;1.20;0.40;;;12.00;1.00;;;;;;5048492;28;21536;-79
2021/12/28 11:49:05;;;;;;;0.77;0.50;;;12.00;1.00;;;;;;5055841;28;20510;-83
2021/12/28 11:51:35;;;;;;;0.50;0.50;;;12.00;1.00;;;;;;5053207;28;20482;-82
2021/12/28 11:54:07;;;;;;;0.60;0.40;;;11.90;99.20;;;;;;5051562;28;20548;-80
2021/12/28 11:56:38;;;;;;;0.40;0.40;;;11.90;99.90;;;;;;5056288;28;20510;-81
2021/12/28 11:59:09;;;;;;;1.40;0.47;;;12.00;99.90;;;;;;5062055;28;20469;-80
2021/12/28 12:01:57;;;;;;;0.50;0.50;;;11.80;99.90;;;;;;5056515;28;20448;-81
2021/12/28 12:04:54;;;;;;;0.70;0.50;;;11.70;99.90;;;;;;5054866;28;20292;-80
2021/12/28 12:07:44;;;;;;;0.50;0.50;;;11.80;99.90;;;;;;5050838;28;20927;-79
2021/12/28 12:10:32;;;;;;;0.43;0.43;;;11.90;99.90;;;;;;5049717;28;20459;-81
2021/12/28 12:13:28;;;;;;;0.53;0.50;;;12.10;38.30;;;;;;5054460;28;20478;-80
2021/12/28 12:15:59;;;;;;;0.83;0.40;;;12.10;23.60;;;;;;5059685;28;20723;-81
2021/12/28 12:18:30;;;;;;;0.50;0.50;;;12.10;1.00;;;;;;5058598;28;20459;-80
2021/12/28 12:21:02;;;;;;;0.40;0.40;;;11.80;99.90;;;;;;5046519;28;20450;-81
2021/12/28 12:23:43;;;;;;;0.40;0.40;;;11.80;99.90;;;;;;5045166;28;20609;-81
2021/12/28 12:26:17;;;;;;;0.60;0.53;;;11.70;1.00;;;;;;5053183;28;20477;-82
2021/12/28 12:28:50;;;;;;;0.70;0.47;;;11.70;99.90;;;;;;5055071;28;20828;-84
2021/12/28 12:31:27;;;;;;;0.40;0.40;;;11.90;99.90;;;;;;5046002;28;20834;-81
2021/12/28 12:33:56;;;;;;;0.40;0.40;;;12.00;99.90;;;;;;5046132;28;20554;-81
2021/12/28 12:36:32;;;;;;;0.50;0.50;;;12.00;99.90;;;;;;5051789;28;20455;-84
2021/12/28 12:39:03;;;;;;;0.83;0.60;;;11.90;99.90;;;;;;5055275;28;20446;-83
2021/12/28 12:41:45;;;;;;;0.63;0.53;;;11.80;99.90;;;;;;5057298;28;21021;-83
2021/12/28 12:44:17;;;;;;;0.40;0.40;;;11.90;99.90;;;;;;5044072;28;20451;-85
2021/12/28 12:46:47;;;;;;;1.03;0.60;;;11.90;99.90;;;;;;5047277;28;20470;-84
2021/12/28 12:49:28;;;;;;;0.90;0.50;;;11.70;99.90;;;;;;5047944;28;20463;-83
2021/12/28 12:52:03;;;;;;;0.90;0.60;;;11.70;99.90;;;;;;5050550;28;20483;-83
2021/12/28 12:54:46;;;;;;;0.50;0.50;;;11.80;99.90;;;;;;5051853;28;20852;-85
2021/12/28 12:57:30;;;;;;;1.00;0.60;;;11.70;99.90;;;;;;5044501;28;20937;-85
2021/12/28 13:00:12;;;;;;;0.40;0.40;;;11.80;99.90;;;;;;5045551;28;20543;-83
2021/12/28 13:02:41;;;;;;;0.40;0.40;;;11.80;99.90;;;;;;5049516;28;20464;-82
2021/12/28 13:05:19;;;;;;;0.60;0.50;;;11.70;99.90;;;;;;5049187;28;20205;-85
2021/12/28 13:07:48;;;;;;;0.47;0.47;;;11.80;93.80;;;;;;5070113;28;21303;-82
2021/12/28 13:10:20;;;;;;;0.50;0.50;;;11.80;1.00;;;;;;5048624;28;20286;-83
2021/12/28 13:12:54;;;;;;;0.43;0.40;;;11.80;99.90;;;;;;5051889;28;20476;-84